Roseville, CA (95747)

7:57 PM PDT on September 22, 2014 (GMT -0700)
Dry Creek Community | Change Station
CLOSE
Current Station
Personal Weather Station
Location: Roseville, CA
Elevation: 118 ft
Nearby Weather Stations

Elev 118 ft 38.73 °N, 121.36 °W | Updated 9 seconds ago

Clear
Clear
79.2 °F
Feels Like 80 °F
N
0.2
Wind Variable Wind from South
Gusts 0.7 mph

Today
High -- | Low -- °F
--% Chance of Precip.
Yesterday
High -- | Low -- °F
Precip. -- in
6:53 AM 7:02 PM
Waning Crescent, 1% visible
Pressure 29.89 in
Visibility 5.0 miles
Clouds Clear
Heat Index 80 °F
Dew Point 58 °F
Humidity 48%
Rainfall 0.00 in
Snow Depth 0 in , 0 in , 0 in
UV 0 out of 12
Pollen 5.40 out of 12
Ozone Good
PM2.5 Unhealthy
Flu Activity Not available.
METAR KLHM 230215Z AUTO 00000KT 5SM CLR 27/10 A2989 RMK AO1

More Conditions Fewer Conditions

Pressure 29.89 in
Visibility 5.0 miles
Clouds Clear
Heat Index 80 °F
Dew Point 58 °F
Humidity 48%
Rainfall 0.00 in
Snow Depth 0 in , 0 in , 0 in
UV 0 out of 12
Pollen 5.40 out of 12
Ozone Good
PM2.5 Unhealthy
Flu Activity Not available.
METAR KLHM 230215Z AUTO 00000KT 5SM CLR 27/10 A2989 RMK AO1

More Conditions Fewer Conditions

10-Day Weather Forecast

Almanac

Astronomy

Sep. 22, 2014 Rise Set
Actual Time 6:53 AM PDT 7:02 PM PDT
Civil Twilight 6:26 AM PDT 7:28 PM PDT
Nautical Twilight 5:55 AM PDT 7:59 PM PDT
Astronomical Twilight 5:24 AM PDT 8:31 PM PDT
Moon 5:27 AM PDT (9/22) 6:12 PM PDT (9/22)
Length of Visible Light 13h 02m
Length of Day
12h 09m
Tomorrow will be 2m 30s shorter.
Waning Crescent, 1% of the Moon is Illuminated
Today
Waning Crescent
Sep 24
New
Oct 1
First Quarter
Oct 8
Full
Oct 15
Last Quarter

Today's Extremes

State Highs State Lows

Community

WunderPhotos

Upload Photos

1,755,587 photos uploaded!

Nearby

Air Quality

  Air Quality AQ Index Pollutant
Yesterday Hazardous
PM2.5
Yesterday Good
OZONE
Current Unhealthy
PM2.5
Current Good
OZONE
Monday Good
OZONE
Tuesday Moderate
OZONE
Wednesday Good
OZONE
Thursday Good
OZONE
Friday Good
OZONE
Saturday Good
OZONE

Snow Depth

Station Depth Elevation
Adin Mountain 0 in 6200 ft
Summit Meadow 0 in 9122 ft
CSS Lab 0 in 6900 ft
Leavitt Meadows 0 in 7200 ft

Earthquake Activity

City Distance Mag. Time & Date
Yountville, California 61 miles 2.6 1:17 PM PDT
2014-09-21
Minimum magnitude displayed is 2.5.

Coastal Water Temperatures

Place Temperature
No Stations Reporting

Nearby Weather Stations